sensor_id;sensor_type;location;lat;lon;timestamp;pressure;altitude;pressure_sealevel;temperature;humidity
65013;BME280;51715;39.432;-77.518;2022-09-09T00:00:52;99239.31;;;26.37;40.82
65013;BME280;51715;39.432;-77.518;2022-09-09T00:03:25;99242.00;;;26.32;40.76
65013;BME280;51715;39.432;-77.518;2022-09-09T00:05:58;99241.18;;;26.48;40.99
65013;BME280;51715;39.432;-77.518;2022-09-09T00:08:38;99242.45;;;26.21;41.06
65013;BME280;51715;39.432;-77.518;2022-09-09T00:11:14;99247.02;;;26.18;41.12
65013;BME280;51715;39.432;-77.518;2022-09-09T00:13:50;99251.22;;;26.34;41.36
65013;BME280;51715;39.432;-77.518;2022-09-09T00:16:22;99254.58;;;26.17;41.53
65013;BME280;51715;39.432;-77.518;2022-09-09T00:18:58;99259.35;;;26.04;42.11
65013;BME280;51715;39.432;-77.518;2022-09-09T00:21:33;99264.16;;;25.86;41.85
65013;BME280;51715;39.432;-77.518;2022-09-09T00:24:11;99270.30;;;25.85;41.82
65013;BME280;51715;39.432;-77.518;2022-09-09T00:26:48;99274.71;;;26.21;41.99
65013;BME280;51715;39.432;-77.518;2022-09-09T00:29:27;99273.87;;;25.84;42.10
65013;BME280;51715;39.432;-77.518;2022-09-09T00:32:05;99281.31;;;25.78;42.23
65013;BME280;51715;39.432;-77.518;2022-09-09T00:34:41;99287.65;;;25.68;42.32
65013;BME280;51715;39.432;-77.518;2022-09-09T00:37:13;99293.03;;;25.93;42.31
65013;BME280;51715;39.432;-77.518;2022-09-09T00:39:46;99295.03;;;25.75;42.26
65013;BME280;51715;39.432;-77.518;2022-09-09T00:42:18;99297.91;;;25.70;42.19
65013;BME280;51715;39.432;-77.518;2022-09-09T00:44:55;99303.07;;;25.83;42.32
65013;BME280;51715;39.432;-77.518;2022-09-09T00:47:38;99305.97;;;25.80;42.26
65013;BME280;51715;39.432;-77.518;2022-09-09T00:50:17;99303.91;;;25.39;43.05
65013;BME280;51715;39.432;-77.518;2022-09-09T00:52:59;99309.12;;;25.24;43.71
65013;BME280;51715;39.432;-77.518;2022-09-09T00:55:38;99311.63;;;24.93;43.43
65013;BME280;51715;39.432;-77.518;2022-09-09T00:58:09;99308.19;;;25.02;43.40
65013;BME280;51715;39.432;-77.518;2022-09-09T01:00:44;99307.03;;;25.06;43.33
65013;BME280;51715;39.432;-77.518;2022-09-09T01:03:22;99313.73;;;25.03;43.30
65013;BME280;51715;39.432;-77.518;2022-09-09T01:06:01;99319.66;;;25.03;43.24
65013;BME280;51715;39.432;-77.518;2022-09-09T01:09:33;99323.16;;;25.50;43.22
65013;BME280;51715;39.432;-77.518;2022-09-09T01:12:16;99328.55;;;24.96;43.37
65013;BME280;51715;39.432;-77.518;2022-09-09T01:14:49;99331.16;;;24.95;43.30
65013;BME280;51715;39.432;-77.518;2022-09-09T01:17:23;99337.90;;;24.96;43.30
65013;BME280;51715;39.432;-77.518;2022-09-09T01:20:03;99341.07;;;24.97;43.24
65013;BME280;51715;39.432;-77.518;2022-09-09T01:22:36;99341.62;;;24.96;43.26
65013;BME280;51715;39.432;-77.518;2022-09-09T01:25:56;99345.90;;;25.13;43.14
65013;BME280;51715;39.432;-77.518;2022-09-09T01:28:35;99352.81;;;25.03;43.09
65013;BME280;51715;39.432;-77.518;2022-09-09T01:31:07;99356.47;;;24.66;43.27
65013;BME280;51715;39.432;-77.518;2022-09-09T01:33:37;99356.13;;;24.55;43.38
65013;BME280;51715;39.432;-77.518;2022-09-09T01:36:10;99356.05;;;24.68;43.50
65013;BME280;51715;39.432;-77.518;2022-09-09T01:38:41;99361.43;;;24.59;43.67
65013;BME280;51715;39.432;-77.518;2022-09-09T01:41:09;99364.05;;;24.59;43.68
65013;BME280;51715;39.432;-77.518;2022-09-09T01:43:40;99369.70;;;24.33;43.48
65013;BME280;51715;39.432;-77.518;2022-09-09T01:46:08;99367.64;;;24.77;43.38
65013;BME280;51715;39.432;-77.518;2022-09-09T01:48:38;99371.58;;;24.29;43.34
65013;BME280;51715;39.432;-77.518;2022-09-09T01:51:09;99370.71;;;24.73;43.29
65013;BME280;51715;39.432;-77.518;2022-09-09T01:53:41;99373.57;;;24.69;43.37
65013;BME280;51715;39.432;-77.518;2022-09-09T01:56:19;99374.39;;;24.46;43.38
65013;BME280;51715;39.432;-77.518;2022-09-09T01:59:03;99373.08;;;24.40;43.66
65013;BME280;51715;39.432;-77.518;2022-09-09T02:01:55;99376.05;;;24.44;43.53
65013;BME280;51715;39.432;-77.518;2022-09-09T02:04:36;99377.17;;;24.16;43.63
65013;BME280;51715;39.432;-77.518;2022-09-09T02:07:10;99381.50;;;24.16;43.36
65013;BME280;51715;39.432;-77.518;2022-09-09T02:09:45;99381.22;;;24.38;43.34
65013;BME280;51715;39.432;-77.518;2022-09-09T02:12:18;99380.90;;;24.30;43.45
65013;BME280;51715;39.432;-77.518;2022-09-09T02:14:52;99381.01;;;24.38;43.45
65013;BME280;51715;39.432;-77.518;2022-09-09T02:17:27;99382.64;;;24.10;43.54
65013;BME280;51715;39.432;-77.518;2022-09-09T02:20:02;99382.14;;;24.15;43.76
65013;BME280;51715;39.432;-77.518;2022-09-09T02:22:34;99379.58;;;23.88;44.17
65013;BME280;51715;39.432;-77.518;2022-09-09T02:25:05;99381.40;;;23.67;44.29
65013;BME280;51715;39.432;-77.518;2022-09-09T02:27:35;99380.61;;;23.78;44.12
65013;BME280;51715;39.432;-77.518;2022-09-09T02:30:06;99381.77;;;23.80;44.10
65013;BME280;51715;39.432;-77.518;2022-09-09T02:32:36;99381.22;;;23.70;44.15
65013;BME280;51715;39.432;-77.518;2022-09-09T02:35:10;99381.64;;;23.71;44.07
65013;BME280;51715;39.432;-77.518;2022-09-09T02:37:41;99377.59;;;24.09;44.06
65013;BME280;51715;39.432;-77.518;2022-09-09T02:40:12;99376.66;;;23.70;44.22
65013;BME280;51715;39.432;-77.518;2022-09-09T02:42:41;99377.51;;;23.78;44.07
65013;BME280;51715;39.432;-77.518;2022-09-09T02:45:12;99376.43;;;23.63;43.91
65013;BME280;51715;39.432;-77.518;2022-09-09T02:47:47;99380.22;;;23.73;43.70
65013;BME280;51715;39.432;-77.518;2022-09-09T02:50:22;99381.50;;;23.91;43.76
65013;BME280;51715;39.432;-77.518;2022-09-09T02:53:02;99382.68;;;23.59;43.60
65013;BME280;51715;39.432;-77.518;2022-09-09T02:55:40;99383.19;;;23.47;43.89
65013;BME280;51715;39.432;-77.518;2022-09-09T02:58:12;99385.86;;;23.46;43.99
65013;BME280;51715;39.432;-77.518;2022-09-09T03:00:43;99387.81;;;23.63;43.95
65013;BME280;51715;39.432;-77.518;2022-09-09T03:03:13;99390.16;;;23.64;43.94
65013;BME280;51715;39.432;-77.518;2022-09-09T03:05:41;99391.41;;;23.62;43.92
65013;BME280;51715;39.432;-77.518;2022-09-09T03:08:10;99387.07;;;23.43;44.12
65013;BME280;51715;39.432;-77.518;2022-09-09T03:10:41;99384.45;;;23.20;44.40
65013;BME280;51715;39.432;-77.518;2022-09-09T03:13:09;99387.36;;;23.41;44.23
65013;BME280;51715;39.432;-77.518;2022-09-09T03:15:38;99391.69;;;23.40;44.30
65013;BME280;51715;39.432;-77.518;2022-09-09T03:18:06;99396.00;;;23.38;44.15
65013;BME280;51715;39.432;-77.518;2022-09-09T03:20:36;99403.52;;;23.34;44.29
65013;BME280;51715;39.432;-77.518;2022-09-09T03:23:06;99404.45;;;23.17;44.32
65013;BME280;51715;39.432;-77.518;2022-09-09T03:25:34;99407.80;;;23.27;44.18
65013;BME280;51715;39.432;-77.518;2022-09-09T03:28:04;99407.46;;;23.78;44.21
65013;BME280;51715;39.432;-77.518;2022-09-09T03:30:32;99413.36;;;23.26;44.28
65013;BME280;51715;39.432;-77.518;2022-09-09T03:33:02;99412.26;;;23.33;44.58
65013;BME280;51715;39.432;-77.518;2022-09-09T03:35:30;99409.57;;;23.29;44.98
65013;BME280;51715;39.432;-77.518;2022-09-09T03:37:59;99411.23;;;22.86;45.55
65013;BME280;51715;39.432;-77.518;2022-09-09T03:40:28;99414.78;;;22.81;45.64
65013;BME280;51715;39.432;-77.518;2022-09-09T03:42:57;99419.66;;;22.92;45.62
65013;BME280;51715;39.432;-77.518;2022-09-09T03:45:26;99423.02;;;22.85;45.38
65013;BME280;51715;39.432;-77.518;2022-09-09T03:47:55;99425.52;;;23.11;45.28
65013;BME280;51715;39.432;-77.518;2022-09-09T03:50:22;99424.14;;;22.70;45.08
65013;BME280;51715;39.432;-77.518;2022-09-09T03:52:50;99428.97;;;22.98;44.89
65013;BME280;51715;39.432;-77.518;2022-09-09T03:55:19;99431.70;;;23.28;44.75
65013;BME280;51715;39.432;-77.518;2022-09-09T03:57:49;99431.81;;;23.06;44.70
65013;BME280;51715;39.432;-77.518;2022-09-09T04:03:54;99435.59;;;23.22;43.66
65013;BME280;51715;39.432;-77.518;2022-09-09T04:06:24;99442.52;;;23.60;43.91
65013;BME280;51715;39.432;-77.518;2022-09-09T04:08:52;99450.53;;;23.07;43.95
65013;BME280;51715;39.432;-77.518;2022-09-09T04:11:21;99452.02;;;23.53;43.95
65013;BME280;51715;39.432;-77.518;2022-09-09T04:13:49;99453.00;;;23.43;44.78
65013;BME280;51715;39.432;-77.518;2022-09-09T04:16:16;99454.69;;;23.57;45.24
65013;BME280;51715;39.432;-77.518;2022-09-09T04:18:45;99455.04;;;23.53;45.43
65013;BME280;51715;39.432;-77.518;2022-09-09T04:21:14;99451.56;;;23.54;45.61
65013;BME280;51715;39.432;-77.518;2022-09-09T04:23:43;99447.98;;;23.27;45.73
65013;BME280;51715;39.432;-77.518;2022-09-09T04:26:12;99448.50;;;23.40;45.49
65013;BME280;51715;39.432;-77.518;2022-09-09T04:28:40;99452.10;;;23.40;45.69
65013;BME280;51715;39.432;-77.518;2022-09-09T04:31:09;99448.20;;;23.42;45.64
65013;BME280;51715;39.432;-77.518;2022-09-09T04:33:39;99449.48;;;23.42;45.61
65013;BME280;51715;39.432;-77.518;2022-09-09T04:36:09;99447.04;;;23.43;45.63
65013;BME280;51715;39.432;-77.518;2022-09-09T04:38:37;99449.55;;;23.19;45.56
65013;BME280;51715;39.432;-77.518;2022-09-09T04:41:06;99449.55;;;23.21;45.23
65013;BME280;51715;39.432;-77.518;2022-09-09T04:43:35;99452.84;;;23.22;45.19
65013;BME280;51715;39.432;-77.518;2022-09-09T04:46:04;99454.12;;;23.51;45.50
65013;BME280;51715;39.432;-77.518;2022-09-09T04:48:32;99455.09;;;23.28;45.37
65013;BME280;51715;39.432;-77.518;2022-09-09T04:51:02;99453.67;;;23.49;45.29
65013;BME280;51715;39.432;-77.518;2022-09-09T04:53:32;99454.61;;;23.30;45.62
65013;BME280;51715;39.432;-77.518;2022-09-09T04:56:03;99455.02;;;23.29;45.60
65013;BME280;51715;39.432;-77.518;2022-09-09T04:58:34;99454.99;;;23.39;45.48
65013;BME280;51715;39.432;-77.518;2022-09-09T05:01:06;99455.37;;;23.37;45.61
65013;BME280;51715;39.432;-77.518;2022-09-09T05:03:35;99454.20;;;23.02;45.44
65013;BME280;51715;39.432;-77.518;2022-09-09T05:06:05;99460.78;;;23.34;45.44
65013;BME280;51715;39.432;-77.518;2022-09-09T05:08:33;99462.56;;;23.14;45.23
65013;BME280;51715;39.432;-77.518;2022-09-09T05:11:01;99464.18;;;23.17;45.27
65013;BME280;51715;39.432;-77.518;2022-09-09T05:13:29;99463.22;;;23.54;45.03
65013;BME280;51715;39.432;-77.518;2022-09-09T05:15:58;99464.06;;;23.51;45.04
65013;BME280;51715;39.432;-77.518;2022-09-09T05:18:26;99459.55;;;23.32;44.67
65013;BME280;51715;39.432;-77.518;2022-09-09T05:20:59;99462.84;;;23.63;44.38
65013;BME280;51715;39.432;-77.518;2022-09-09T05:23:27;99459.13;;;23.16;44.06
65013;BME280;51715;39.432;-77.518;2022-09-09T05:25:58;99456.52;;;23.44;44.20
65013;BME280;51715;39.432;-77.518;2022-09-09T05:28:26;99454.61;;;23.59;44.38
65013;BME280;51715;39.432;-77.518;2022-09-09T05:30:58;99452.33;;;23.44;44.57
65013;BME280;51715;39.432;-77.518;2022-09-09T05:33:28;99454.87;;;23.20;44.89
65013;BME280;51715;39.432;-77.518;2022-09-09T05:35:59;99457.16;;;23.06;45.35
65013;BME280;51715;39.432;-77.518;2022-09-09T05:38:28;99455.08;;;22.99;45.37
65013;BME280;51715;39.432;-77.518;2022-09-09T05:40:57;99451.95;;;22.76;45.78
65013;BME280;51715;39.432;-77.518;2022-09-09T05:43:26;99456.68;;;22.91;46.10
65013;BME280;51715;39.432;-77.518;2022-09-09T05:46:04;99457.41;;;22.55;46.26
65013;BME280;51715;39.432;-77.518;2022-09-09T05:48:34;99455.00;;;23.07;46.26
65013;BME280;51715;39.432;-77.518;2022-09-09T05:51:04;99449.50;;;22.97;46.32
65013;BME280;51715;39.432;-77.518;2022-09-09T05:53:32;99446.50;;;22.79;46.40
65013;BME280;51715;39.432;-77.518;2022-09-09T05:56:02;99449.57;;;22.62;46.15
65013;BME280;51715;39.432;-77.518;2022-09-09T05:58:31;99451.80;;;22.91;45.92
65013;BME280;51715;39.432;-77.518;2022-09-09T06:01:04;99451.48;;;22.66;45.92
65013;BME280;51715;39.432;-77.518;2022-09-09T06:03:32;99449.36;;;22.74;45.76
65013;BME280;51715;39.432;-77.518;2022-09-09T06:06:02;99448.40;;;22.97;45.46
65013;BME280;51715;39.432;-77.518;2022-09-09T06:08:31;99445.29;;;22.65;45.69
65013;BME280;51715;39.432;-77.518;2022-09-09T06:11:02;99446.33;;;22.65;45.78
65013;BME280;51715;39.432;-77.518;2022-09-09T06:13:31;99446.52;;;22.63;45.66
65013;BME280;51715;39.432;-77.518;2022-09-09T06:15:59;99447.84;;;23.09;45.36
65013;BME280;51715;39.432;-77.518;2022-09-09T06:18:28;99449.75;;;22.97;45.52
65013;BME280;51715;39.432;-77.518;2022-09-09T06:20:58;99449.75;;;22.93;45.80
65013;BME280;51715;39.432;-77.518;2022-09-09T06:23:27;99449.04;;;22.75;45.81
65013;BME280;51715;39.432;-77.518;2022-09-09T06:26:04;99449.43;;;22.97;45.51
65013;BME280;51715;39.432;-77.518;2022-09-09T06:28:33;99452.02;;;22.89;45.58
65013;BME280;51715;39.432;-77.518;2022-09-09T06:31:02;99452.51;;;22.53;46.26
65013;BME280;51715;39.432;-77.518;2022-09-09T06:33:32;99450.95;;;22.38;46.63
65013;BME280;51715;39.432;-77.518;2022-09-09T06:36:02;99450.51;;;22.54;46.99
65013;BME280;51715;39.432;-77.518;2022-09-09T06:38:31;99454.00;;;22.40;46.82
65013;BME280;51715;39.432;-77.518;2022-09-09T06:41:01;99454.89;;;22.51;46.45
65013;BME280;51715;39.432;-77.518;2022-09-09T06:43:29;99451.61;;;22.53;46.48
65013;BME280;51715;39.432;-77.518;2022-09-09T06:45:58;99450.68;;;22.55;46.30
65013;BME280;51715;39.432;-77.518;2022-09-09T06:48:27;99452.76;;;22.38;45.81
65013;BME280;51715;39.432;-77.518;2022-09-09T06:51:05;99449.18;;;22.31;46.05
65013;BME280;51715;39.432;-77.518;2022-09-09T06:53:35;99448.42;;;22.42;45.63
65013;BME280;51715;39.432;-77.518;2022-09-09T06:56:18;99447.70;;;22.12;46.18
65013;BME280;51715;39.432;-77.518;2022-09-09T06:58:47;99453.48;;;22.31;46.37
65013;BME280;51715;39.432;-77.518;2022-09-09T07:01:17;99458.02;;;21.83;47.31
65013;BME280;51715;39.432;-77.518;2022-09-09T07:03:48;99462.11;;;21.89;47.94
65013;BME280;51715;39.432;-77.518;2022-09-09T07:06:19;99465.20;;;22.06;47.11
65013;BME280;51715;39.432;-77.518;2022-09-09T07:08:52;99470.03;;;22.11;47.01
65013;BME280;51715;39.432;-77.518;2022-09-09T07:11:22;99473.01;;;22.02;46.82
65013;BME280;51715;39.432;-77.518;2022-09-09T07:13:50;99481.00;;;22.34;46.36
65013;BME280;51715;39.432;-77.518;2022-09-09T07:16:19;99480.62;;;22.38;46.13
65013;BME280;51715;39.432;-77.518;2022-09-09T07:18:47;99478.69;;;22.43;46.06
65013;BME280;51715;39.432;-77.518;2022-09-09T07:21:17;99477.41;;;22.41;45.79
65013;BME280;51715;39.432;-77.518;2022-09-09T07:23:45;99481.49;;;22.39;46.39
65013;BME280;51715;39.432;-77.518;2022-09-09T07:26:16;99476.39;;;22.24;46.21
65013;BME280;51715;39.432;-77.518;2022-09-09T07:28:46;99471.98;;;22.25;46.13
65013;BME280;51715;39.432;-77.518;2022-09-09T07:31:16;99472.19;;;22.28;46.10
65013;BME280;51715;39.432;-77.518;2022-09-09T07:33:45;99473.24;;;22.33;46.06
65013;BME280;51715;39.432;-77.518;2022-09-09T07:36:17;99472.69;;;22.25;46.06
65013;BME280;51715;39.432;-77.518;2022-09-09T07:38:47;99469.84;;;22.24;45.90
65013;BME280;51715;39.432;-77.518;2022-09-09T07:41:18;99471.38;;;22.19;46.11
65013;BME280;51715;39.432;-77.518;2022-09-09T07:43:48;99473.92;;;22.20;46.08
65013;BME280;51715;39.432;-77.518;2022-09-09T07:46:18;99474.49;;;22.24;45.91
65013;BME280;51715;39.432;-77.518;2022-09-09T07:48:49;99475.51;;;22.00;45.86
65013;BME280;51715;39.432;-77.518;2022-09-09T07:51:19;99482.09;;;22.08;45.60
65013;BME280;51715;39.432;-77.518;2022-09-09T07:53:48;99486.14;;;22.32;45.33
65013;BME280;51715;39.432;-77.518;2022-09-09T07:56:17;99481.79;;;22.06;45.87
65013;BME280;51715;39.432;-77.518;2022-09-09T07:58:46;99478.38;;;21.90;46.24
65013;BME280;51715;39.432;-77.518;2022-09-09T08:01:16;99479.59;;;21.93;46.32
65013;BME280;51715;39.432;-77.518;2022-09-09T08:03:47;99484.20;;;21.99;46.36
65013;BME280;51715;39.432;-77.518;2022-09-09T08:06:19;99488.13;;;22.35;45.95
65013;BME280;51715;39.432;-77.518;2022-09-09T08:08:51;99490.76;;;22.08;46.04
65013;BME280;51715;39.432;-77.518;2022-09-09T08:11:19;99492.77;;;21.74;46.13
65013;BME280;51715;39.432;-77.518;2022-09-09T08:13:47;99492.25;;;22.31;45.88
65013;BME280;51715;39.432;-77.518;2022-09-09T08:16:20;99493.50;;;21.87;46.14
65013;BME280;51715;39.432;-77.518;2022-09-09T08:18:48;99496.28;;;22.02;46.21
65013;BME280;51715;39.432;-77.518;2022-09-09T08:21:18;99496.20;;;22.08;45.94
65013;BME280;51715;39.432;-77.518;2022-09-09T08:23:47;99494.22;;;22.09;45.65
65013;BME280;51715;39.432;-77.518;2022-09-09T08:26:18;99496.38;;;22.09;45.85
65013;BME280;51715;39.432;-77.518;2022-09-09T08:28:48;99500.14;;;22.08;45.55
65013;BME280;51715;39.432;-77.518;2022-09-09T08:31:19;99496.39;;;21.98;45.73
65013;BME280;51715;39.432;-77.518;2022-09-09T08:33:48;99497.37;;;21.94;46.01
65013;BME280;51715;39.432;-77.518;2022-09-09T08:36:18;99497.56;;;21.96;45.90
65013;BME280;51715;39.432;-77.518;2022-09-09T08:38:48;99501.18;;;21.93;46.04
65013;BME280;51715;39.432;-77.518;2022-09-09T08:41:32;99502.54;;;21.86;46.16
65013;BME280;51715;39.432;-77.518;2022-09-09T08:44:07;99507.42;;;22.18;45.81
65013;BME280;51715;39.432;-77.518;2022-09-09T08:46:43;99510.46;;;21.78;45.55
65013;BME280;51715;39.432;-77.518;2022-09-09T08:49:27;99517.48;;;22.22;45.09
65013;BME280;51715;39.432;-77.518;2022-09-09T08:52:02;99522.42;;;21.93;44.63
65013;BME280;51715;39.432;-77.518;2022-09-09T08:54:34;99525.87;;;22.02;44.64
65013;BME280;51715;39.432;-77.518;2022-09-09T08:57:04;99524.70;;;22.30;44.52
65013;BME280;51715;39.432;-77.518;2022-09-09T08:59:38;99527.04;;;22.26;44.38
65013;BME280;51715;39.432;-77.518;2022-09-09T09:02:15;99525.51;;;22.20;44.31
65013;BME280;51715;39.432;-77.518;2022-09-09T09:05:00;99522.15;;;22.33;44.43
65013;BME280;51715;39.432;-77.518;2022-09-09T09:07:42;99521.03;;;21.90;44.84
65013;BME280;51715;39.432;-77.518;2022-09-09T09:10:21;99519.02;;;21.95;44.94
65013;BME280;51715;39.432;-77.518;2022-09-09T09:12:53;99517.51;;;22.17;44.99
65013;BME280;51715;39.432;-77.518;2022-09-09T09:15:25;99520.20;;;22.19;44.70
65013;BME280;51715;39.432;-77.518;2022-09-09T09:17:54;99520.78;;;22.24;44.64
65013;BME280;51715;39.432;-77.518;2022-09-09T09:20:27;99524.89;;;22.13;44.66
65013;BME280;51715;39.432;-77.518;2022-09-09T09:23:00;99526.97;;;21.81;45.36
65013;BME280;51715;39.432;-77.518;2022-09-09T09:25:34;99531.68;;;21.82;45.28
65013;BME280;51715;39.432;-77.518;2022-09-09T09:28:12;99533.46;;;21.70;44.92
65013;BME280;51715;39.432;-77.518;2022-09-09T09:30:46;99537.28;;;21.66;44.95
65013;BME280;51715;39.432;-77.518;2022-09-09T09:33:21;99540.93;;;21.85;45.12
65013;BME280;51715;39.432;-77.518;2022-09-09T09:35:50;99545.73;;;21.90;45.05
65013;BME280;51715;39.432;-77.518;2022-09-09T09:38:21;99550.15;;;21.73;44.93
65013;BME280;51715;39.432;-77.518;2022-09-09T09:40:50;99555.60;;;22.00;45.05
65013;BME280;51715;39.432;-77.518;2022-09-09T09:43:21;99560.03;;;21.88;45.65
65013;BME280;51715;39.432;-77.518;2022-09-09T09:45:52;99560.97;;;21.83;45.95
65013;BME280;51715;39.432;-77.518;2022-09-09T09:48:21;99562.48;;;22.13;45.50
65013;BME280;51715;39.432;-77.518;2022-09-09T09:50:51;99566.40;;;22.08;45.22
65013;BME280;51715;39.432;-77.518;2022-09-09T09:53:24;99565.63;;;21.76;45.62
65013;BME280;51715;39.432;-77.518;2022-09-09T09:55:56;99568.26;;;21.85;45.81
65013;BME280;51715;39.432;-77.518;2022-09-09T09:58:29;99571.76;;;21.60;46.23
65013;BME280;51715;39.432;-77.518;2022-09-09T10:00:57;99577.50;;;21.67;46.41
65013;BME280;51715;39.432;-77.518;2022-09-09T10:03:29;99582.84;;;21.48;46.03
65013;BME280;51715;39.432;-77.518;2022-09-09T10:05:58;99584.65;;;21.80;45.86
65013;BME280;51715;39.432;-77.518;2022-09-09T10:08:27;99586.60;;;22.05;45.82
65013;BME280;51715;39.432;-77.518;2022-09-09T10:11:06;99588.41;;;21.79;45.48
65013;BME280;51715;39.432;-77.518;2022-09-09T10:13:48;99588.54;;;21.53;45.30
65013;BME280;51715;39.432;-77.518;2022-09-09T10:16:27;99590.18;;;21.62;45.01
65013;BME280;51715;39.432;-77.518;2022-09-09T10:19:04;99596.11;;;21.67;44.83
65013;BME280;51715;39.432;-77.518;2022-09-09T10:21:46;99599.06;;;21.64;44.83
65013;BME280;51715;39.432;-77.518;2022-09-09T10:24:33;99602.53;;;21.99;44.81
65013;BME280;51715;39.432;-77.518;2022-09-09T10:27:14;99608.70;;;21.53;45.45
65013;BME280;51715;39.432;-77.518;2022-09-09T10:29:57;99607.47;;;21.88;45.19
65013;BME280;51715;39.432;-77.518;2022-09-09T10:32:38;99608.34;;;21.40;44.95
65013;BME280;51715;39.432;-77.518;2022-09-09T10:35:13;99614.47;;;21.82;44.90
65013;BME280;51715;39.432;-77.518;2022-09-09T10:37:57;99618.83;;;21.52;45.26
65013;BME280;51715;39.432;-77.518;2022-09-09T10:40:33;99625.65;;;21.27;45.01
65013;BME280;51715;39.432;-77.518;2022-09-09T10:43:11;99627.57;;;21.68;44.58
65013;BME280;51715;39.432;-77.518;2022-09-09T10:45:51;99630.79;;;21.95;44.45
65013;BME280;51715;39.432;-77.518;2022-09-09T10:48:33;99637.83;;;21.67;44.39
65013;BME280;51715;39.432;-77.518;2022-09-09T10:51:21;99646.92;;;21.65;44.59
65013;BME280;51715;39.432;-77.518;2022-09-09T10:54:04;99652.91;;;21.49;45.14
65013;BME280;51715;39.432;-77.518;2022-09-09T10:56:38;99658.11;;;21.53;45.05
65013;BME280;51715;39.432;-77.518;2022-09-09T10:59:16;99662.62;;;21.70;44.90
65013;BME280;51715;39.432;-77.518;2022-09-09T11:01:51;99666.88;;;21.72;44.79
65013;BME280;51715;39.432;-77.518;2022-09-09T11:04:24;99676.02;;;21.67;44.96
65013;BME280;51715;39.432;-77.518;2022-09-09T11:06:55;99678.07;;;21.56;45.15
65013;BME280;51715;39.432;-77.518;2022-09-09T11:09:25;99679.82;;;21.62;45.10
65013;BME280;51715;39.432;-77.518;2022-09-09T11:11:58;99685.84;;;21.89;45.24
65013;BME280;51715;39.432;-77.518;2022-09-09T11:14:31;99688.74;;;21.74;44.99
65013;BME280;51715;39.432;-77.518;2022-09-09T11:17:05;99694.07;;;21.63;44.88
65013;BME280;51715;39.432;-77.518;2022-09-09T11:19:37;99695.90;;;21.82;44.95
65013;BME280;51715;39.432;-77.518;2022-09-09T11:22:14;99695.20;;;21.90;45.00
65013;BME280;51715;39.432;-77.518;2022-09-09T11:24:47;99696.36;;;21.70;44.83
65013;BME280;51715;39.432;-77.518;2022-09-09T11:27:23;99699.45;;;21.17;44.65
65013;BME280;51715;39.432;-77.518;2022-09-09T11:30:18;99704.27;;;21.52;44.45
65013;BME280;51715;39.432;-77.518;2022-09-09T11:33:00;99706.52;;;21.76;44.44
65013;BME280;51715;39.432;-77.518;2022-09-09T11:35:53;99707.51;;;21.79;44.35
65013;BME280;51715;39.432;-77.518;2022-09-09T11:38:28;99712.35;;;21.96;44.49
65013;BME280;51715;39.432;-77.518;2022-09-09T11:40:58;99716.54;;;21.99;44.53
65013;BME280;51715;39.432;-77.518;2022-09-09T11:43:31;99719.48;;;22.06;44.42
65013;BME280;51715;39.432;-77.518;2022-09-09T11:46:02;99718.62;;;22.07;44.70
65013;BME280;51715;39.432;-77.518;2022-09-09T11:48:34;99717.82;;;21.89;44.87
65013;BME280;51715;39.432;-77.518;2022-09-09T11:51:05;99720.75;;;22.18;44.75
65013;BME280;51715;39.432;-77.518;2022-09-09T11:53:35;99721.65;;;22.18;44.80
65013;BME280;51715;39.432;-77.518;2022-09-09T11:56:08;99720.38;;;22.19;44.89
65013;BME280;51715;39.432;-77.518;2022-09-09T11:58:40;99719.96;;;22.18;45.16
65013;BME280;51715;39.432;-77.518;2022-09-09T12:01:25;99719.70;;;22.22;45.31
65013;BME280;51715;39.432;-77.518;2022-09-09T12:04:06;99718.95;;;21.96;45.60
65013;BME280;51715;39.432;-77.518;2022-09-09T12:06:45;99720.79;;;21.84;45.76
65013;BME280;51715;39.432;-77.518;2022-09-09T12:09:21;99726.41;;;22.07;45.91
65013;BME280;51715;39.432;-77.518;2022-09-09T12:11:51;99724.53;;;22.38;45.80
65013;BME280;51715;39.432;-77.518;2022-09-09T12:14:22;99723.94;;;22.72;46.13
65013;BME280;51715;39.432;-77.518;2022-09-09T12:16:52;99727.46;;;22.65;46.00
65013;BME280;51715;39.432;-77.518;2022-09-09T12:19:22;99731.09;;;22.28;45.81
65013;BME280;51715;39.432;-77.518;2022-09-09T12:22:00;99737.02;;;22.95;45.87
